sensor_id;sensor_type;location;lat;lon;timestamp;temperature;humidity
29003;DHT22;16102;57.138;-2.118;2023-04-01T00:01:48;6.90;73.30
29003;DHT22;16102;57.138;-2.118;2023-04-01T00:04:14;6.90;76.80
29003;DHT22;16102;57.138;-2.118;2023-04-01T00:06:42;6.90;77.80
29003;DHT22;16102;57.138;-2.118;2023-04-01T00:09:09;6.80;66.20
29003;DHT22;16102;57.138;-2.118;2023-04-01T00:11:36;6.90;44.10
29003;DHT22;16102;57.138;-2.118;2023-04-01T00:14:03;6.90;31.40
29003;DHT22;16102;57.138;-2.118;2023-04-01T00:16:30;6.90;20.90
29003;DHT22;16102;57.138;-2.118;2023-04-01T00:18:57;6.90;8.60
29003;DHT22;16102;57.138;-2.118;2023-04-01T00:21:25;6.90;1.00
29003;DHT22;16102;57.138;-2.118;2023-04-01T00:23:52;6.80;1.00
29003;DHT22;16102;57.138;-2.118;2023-04-01T00:26:19;6.90;1.00
29003;DHT22;16102;57.138;-2.118;2023-04-01T00:28:48;6.90;1.00
29003;DHT22;16102;57.138;-2.118;2023-04-01T00:31:16;6.90;1.00
29003;DHT22;16102;57.138;-2.118;2023-04-01T00:33:43;6.90;1.00
29003;DHT22;16102;57.138;-2.118;2023-04-01T00:36:11;6.90;1.00
29003;DHT22;16102;57.138;-2.118;2023-04-01T00:38:39;7.00;1.00
29003;DHT22;16102;57.138;-2.118;2023-04-01T00:41:07;6.90;1.00
29003;DHT22;16102;57.138;-2.118;2023-04-01T00:43:34;6.90;1.00
29003;DHT22;16102;57.138;-2.118;2023-04-01T00:46:01;6.90;1.00
29003;DHT22;16102;57.138;-2.118;2023-04-01T00:48:35;6.90;1.00
29003;DHT22;16102;57.138;-2.118;2023-04-01T00:51:06;7.00;1.00
29003;DHT22;16102;57.138;-2.118;2023-04-01T00:53:38;6.90;1.00
29003;DHT22;16102;57.138;-2.118;2023-04-01T00:56:10;6.90;4.50
29003;DHT22;16102;57.138;-2.118;2023-04-01T00:58:43;6.90;13.20
29003;DHT22;16102;57.138;-2.118;2023-04-01T01:01:11;6.90;23.90
29003;DHT22;16102;57.138;-2.118;2023-04-01T01:03:38;6.90;40.30
29003;DHT22;16102;57.138;-2.118;2023-04-01T01:11:26;6.70;53.10
29003;DHT22;16102;57.138;-2.118;2023-04-01T01:14:28;6.70;47.90
29003;DHT22;16102;57.138;-2.118;2023-04-01T01:17:18;6.70;70.60
29003;DHT22;16102;57.138;-2.118;2023-04-01T01:19:52;6.70;91.00
29003;DHT22;16102;57.138;-2.118;2023-04-01T01:30:35;6.70;99.90
29003;DHT22;16102;57.138;-2.118;2023-04-01T01:36:26;6.60;99.90
29003;DHT22;16102;57.138;-2.118;2023-04-01T01:38:56;6.60;99.90
29003;DHT22;16102;57.138;-2.118;2023-04-01T01:41:25;6.70;99.90
29003;DHT22;16102;57.138;-2.118;2023-04-01T01:43:54;6.60;99.90
29003;DHT22;16102;57.138;-2.118;2023-04-01T01:46:25;6.60;99.90
29003;DHT22;16102;57.138;-2.118;2023-04-01T01:48:53;6.60;99.90
29003;DHT22;16102;57.138;-2.118;2023-04-01T01:51:22;6.70;99.90
29003;DHT22;16102;57.138;-2.118;2023-04-01T01:53:49;6.60;99.90
29003;DHT22;16102;57.138;-2.118;2023-04-01T01:56:18;6.60;99.90
29003;DHT22;16102;57.138;-2.118;2023-04-01T01:58:52;6.60;99.90
29003;DHT22;16102;57.138;-2.118;2023-04-01T02:01:24;6.60;99.90
29003;DHT22;16102;57.138;-2.118;2023-04-01T02:03:53;6.70;99.90
29003;DHT22;16102;57.138;-2.118;2023-04-01T02:06:23;6.60;99.90
29003;DHT22;16102;57.138;-2.118;2023-04-01T02:09:03;6.60;99.90
29003;DHT22;16102;57.138;-2.118;2023-04-01T02:11:33;6.60;99.90
29003;DHT22;16102;57.138;-2.118;2023-04-01T02:14:06;6.60;99.90
29003;DHT22;16102;57.138;-2.118;2023-04-01T02:16:45;6.60;99.90
29003;DHT22;16102;57.138;-2.118;2023-04-01T02:19:17;6.60;99.90
29003;DHT22;16102;57.138;-2.118;2023-04-01T02:21:56;6.60;99.90
29003;DHT22;16102;57.138;-2.118;2023-04-01T02:24:26;6.70;99.90
29003;DHT22;16102;57.138;-2.118;2023-04-01T02:26:54;6.70;99.90
29003;DHT22;16102;57.138;-2.118;2023-04-01T02:29:23;6.60;99.90
29003;DHT22;16102;57.138;-2.118;2023-04-01T02:31:52;6.60;99.90
29003;DHT22;16102;57.138;-2.118;2023-04-01T02:34:22;6.60;99.90
29003;DHT22;16102;57.138;-2.118;2023-04-01T02:36:50;6.60;99.90
29003;DHT22;16102;57.138;-2.118;2023-04-01T02:39:18;6.60;99.90
29003;DHT22;16102;57.138;-2.118;2023-04-01T02:41:46;6.60;99.90
29003;DHT22;16102;57.138;-2.118;2023-04-01T02:44:14;6.60;99.90
29003;DHT22;16102;57.138;-2.118;2023-04-01T02:46:42;6.60;99.90
29003;DHT22;16102;57.138;-2.118;2023-04-01T02:49:09;6.50;99.90
29003;DHT22;16102;57.138;-2.118;2023-04-01T02:51:36;6.50;98.50
29003;DHT22;16102;57.138;-2.118;2023-04-01T02:54:04;6.50;85.00
29003;DHT22;16102;57.138;-2.118;2023-04-01T02:56:31;6.60;81.60
29003;DHT22;16102;57.138;-2.118;2023-04-01T02:58:58;6.60;81.40
29003;DHT22;16102;57.138;-2.118;2023-04-01T03:01:25;6.60;87.30
29003;DHT22;16102;57.138;-2.118;2023-04-01T03:03:52;6.60;92.90
29003;DHT22;16102;57.138;-2.118;2023-04-01T03:06:19;6.60;94.90
29003;DHT22;16102;57.138;-2.118;2023-04-01T03:08:46;6.60;92.90
29003;DHT22;16102;57.138;-2.118;2023-04-01T03:11:13;6.50;89.80
29003;DHT22;16102;57.138;-2.118;2023-04-01T03:13:40;6.60;74.80
29003;DHT22;16102;57.138;-2.118;2023-04-01T03:16:07;6.60;62.30
29003;DHT22;16102;57.138;-2.118;2023-04-01T03:18:34;6.60;52.90
29003;DHT22;16102;57.138;-2.118;2023-04-01T03:21:18;6.60;39.60
29003;DHT22;16102;57.138;-2.118;2023-04-01T03:23:45;6.60;23.40
29003;DHT22;16102;57.138;-2.118;2023-04-01T03:26:12;6.60;17.80
29003;DHT22;16102;57.138;-2.118;2023-04-01T03:28:40;6.60;12.10
29003;DHT22;16102;57.138;-2.118;2023-04-01T03:31:07;6.60;7.20
29003;DHT22;16102;57.138;-2.118;2023-04-01T03:33:34;6.60;1.00
29003;DHT22;16102;57.138;-2.118;2023-04-01T03:36:01;6.60;6.60
29003;DHT22;16102;57.138;-2.118;2023-04-01T03:38:30;6.60;1.00
29003;DHT22;16102;57.138;-2.118;2023-04-01T03:40:56;6.60;1.00
29003;DHT22;16102;57.138;-2.118;2023-04-01T03:43:23;6.60;1.00
29003;DHT22;16102;57.138;-2.118;2023-04-01T03:45:51;6.60;1.00
29003;DHT22;16102;57.138;-2.118;2023-04-01T03:48:18;6.70;1.00
29003;DHT22;16102;57.138;-2.118;2023-04-01T03:50:48;6.60;1.00
29003;DHT22;16102;57.138;-2.118;2023-04-01T03:53:15;6.60;1.00
29003;DHT22;16102;57.138;-2.118;2023-04-01T03:55:42;6.60;1.00
29003;DHT22;16102;57.138;-2.118;2023-04-01T03:58:09;6.60;1.00
29003;DHT22;16102;57.138;-2.118;2023-04-01T04:00:36;6.60;1.00
29003;DHT22;16102;57.138;-2.118;2023-04-01T04:03:03;6.60;1.00
29003;DHT22;16102;57.138;-2.118;2023-04-01T04:05:30;6.60;1.00
29003;DHT22;16102;57.138;-2.118;2023-04-01T04:07:58;6.60;1.00
29003;DHT22;16102;57.138;-2.118;2023-04-01T04:10:25;6.60;1.00
29003;DHT22;16102;57.138;-2.118;2023-04-01T04:12:52;6.60;1.00
29003;DHT22;16102;57.138;-2.118;2023-04-01T04:15:19;6.60;1.00
29003;DHT22;16102;57.138;-2.118;2023-04-01T04:17:47;6.60;1.00
29003;DHT22;16102;57.138;-2.118;2023-04-01T04:20:14;6.70;1.00
29003;DHT22;16102;57.138;-2.118;2023-04-01T04:22:41;6.70;1.00
29003;DHT22;16102;57.138;-2.118;2023-04-01T04:25:08;6.70;1.00
29003;DHT22;16102;57.138;-2.118;2023-04-01T04:27:35;6.70;1.00
29003;DHT22;16102;57.138;-2.118;2023-04-01T04:30:04;6.70;1.00
29003;DHT22;16102;57.138;-2.118;2023-04-01T04:32:32;6.70;1.00
29003;DHT22;16102;57.138;-2.118;2023-04-01T04:34:59;6.70;1.00
29003;DHT22;16102;57.138;-2.118;2023-04-01T04:37:26;6.70;1.00
29003;DHT22;16102;57.138;-2.118;2023-04-01T04:39:53;6.70;1.00
29003;DHT22;16102;57.138;-2.118;2023-04-01T04:42:21;6.70;1.00
29003;DHT22;16102;57.138;-2.118;2023-04-01T04:44:48;6.70;1.00
29003;DHT22;16102;57.138;-2.118;2023-04-01T04:47:15;6.70;1.00
29003;DHT22;16102;57.138;-2.118;2023-04-01T04:49:42;6.60;1.00
29003;DHT22;16102;57.138;-2.118;2023-04-01T04:52:09;6.60;1.00
29003;DHT22;16102;57.138;-2.118;2023-04-01T04:54:36;6.50;1.00
29003;DHT22;16102;57.138;-2.118;2023-04-01T04:57:03;6.50;1.00
29003;DHT22;16102;57.138;-2.118;2023-04-01T04:59:31;6.60;1.00
29003;DHT22;16102;57.138;-2.118;2023-04-01T05:01:58;6.60;1.00
29003;DHT22;16102;57.138;-2.118;2023-04-01T05:04:25;6.60;1.00
29003;DHT22;16102;57.138;-2.118;2023-04-01T05:06:52;6.60;1.00
29003;DHT22;16102;57.138;-2.118;2023-04-01T05:09:19;6.70;1.00
29003;DHT22;16102;57.138;-2.118;2023-04-01T05:11:46;6.70;1.00
29003;DHT22;16102;57.138;-2.118;2023-04-01T05:14:14;6.70;1.00
29003;DHT22;16102;57.138;-2.118;2023-04-01T05:16:41;6.70;1.00
29003;DHT22;16102;57.138;-2.118;2023-04-01T05:19:09;6.70;1.00
29003;DHT22;16102;57.138;-2.118;2023-04-01T05:21:35;6.70;1.00
29003;DHT22;16102;57.138;-2.118;2023-04-01T05:24:02;6.70;1.00
29003;DHT22;16102;57.138;-2.118;2023-04-01T05:26:29;6.70;1.00
29003;DHT22;16102;57.138;-2.118;2023-04-01T05:28:57;6.70;1.00
29003;DHT22;16102;57.138;-2.118;2023-04-01T05:31:24;6.70;1.00
29003;DHT22;16102;57.138;-2.118;2023-04-01T05:33:51;6.70;1.00
29003;DHT22;16102;57.138;-2.118;2023-04-01T05:36:18;6.70;1.00
29003;DHT22;16102;57.138;-2.118;2023-04-01T05:38:45;6.70;1.00
29003;DHT22;16102;57.138;-2.118;2023-04-01T05:41:13;6.70;1.00
29003;DHT22;16102;57.138;-2.118;2023-04-01T05:43:41;6.70;1.00
29003;DHT22;16102;57.138;-2.118;2023-04-01T05:46:09;6.60;1.00
29003;DHT22;16102;57.138;-2.118;2023-04-01T05:48:36;6.70;1.00
29003;DHT22;16102;57.138;-2.118;2023-04-01T05:51:04;6.60;1.00
29003;DHT22;16102;57.138;-2.118;2023-04-01T05:53:31;6.60;1.00
29003;DHT22;16102;57.138;-2.118;2023-04-01T05:56:02;6.60;1.00
29003;DHT22;16102;57.138;-2.118;2023-04-01T05:58:29;6.50;1.00
29003;DHT22;16102;57.138;-2.118;2023-04-01T06:01:01;6.60;1.00
29003;DHT22;16102;57.138;-2.118;2023-04-01T06:03:38;6.60;1.00
29003;DHT22;16102;57.138;-2.118;2023-04-01T06:06:15;6.70;1.00
29003;DHT22;16102;57.138;-2.118;2023-04-01T06:08:43;6.70;1.00
29003;DHT22;16102;57.138;-2.118;2023-04-01T06:30:37;6.80;1.00
29003;DHT22;16102;57.138;-2.118;2023-04-01T06:33:20;6.70;1.00
29003;DHT22;16102;57.138;-2.118;2023-04-01T06:36:14;6.70;1.00
29003;DHT22;16102;57.138;-2.118;2023-04-01T06:38:57;6.70;1.00
29003;DHT22;16102;57.138;-2.118;2023-04-01T06:42:05;6.70;1.00
29003;DHT22;16102;57.138;-2.118;2023-04-01T06:53:16;6.70;1.00
29003;DHT22;16102;57.138;-2.118;2023-04-01T06:55:57;6.60;1.00
29003;DHT22;16102;57.138;-2.118;2023-04-01T06:58:39;6.70;1.00
29003;DHT22;16102;57.138;-2.118;2023-04-01T07:01:11;6.70;1.00
29003;DHT22;16102;57.138;-2.118;2023-04-01T07:03:43;6.70;1.00
29003;DHT22;16102;57.138;-2.118;2023-04-01T07:06:31;6.80;1.00
29003;DHT22;16102;57.138;-2.118;2023-04-01T07:09:02;6.80;1.00
29003;DHT22;16102;57.138;-2.118;2023-04-01T07:11:34;6.80;1.00
29003;DHT22;16102;57.138;-2.118;2023-04-01T07:14:28;6.90;1.00
29003;DHT22;16102;57.138;-2.118;2023-04-01T07:17:05;6.90;1.00
29003;DHT22;16102;57.138;-2.118;2023-04-01T07:19:44;6.90;1.00
29003;DHT22;16102;57.138;-2.118;2023-04-01T07:22:38;6.90;1.00
29003;DHT22;16102;57.138;-2.118;2023-04-01T07:25:26;6.90;1.00
29003;DHT22;16102;57.138;-2.118;2023-04-01T07:28:00;7.00;1.00
29003;DHT22;16102;57.138;-2.118;2023-04-01T07:30:37;7.00;1.00
29003;DHT22;16102;57.138;-2.118;2023-04-01T07:33:16;7.00;1.00
29003;DHT22;16102;57.138;-2.118;2023-04-01T07:35:59;7.10;1.00
29003;DHT22;16102;57.138;-2.118;2023-04-01T07:38:48;7.10;1.00
29003;DHT22;16102;57.138;-2.118;2023-04-01T07:41:36;7.00;1.00
29003;DHT22;16102;57.138;-2.118;2023-04-01T07:44:21;7.10;1.00
29003;DHT22;16102;57.138;-2.118;2023-04-01T07:49:49;7.10;1.00
29003;DHT22;16102;57.138;-2.118;2023-04-01T07:52:24;7.10;1.00
29003;DHT22;16102;57.138;-2.118;2023-04-01T07:57:33;7.10;1.00
29003;DHT22;16102;57.138;-2.118;2023-04-01T08:22:21;7.50;1.00
29003;DHT22;16102;57.138;-2.118;2023-04-01T08:24:51;7.40;1.00
29003;DHT22;16102;57.138;-2.118;2023-04-01T08:27:37;7.40;1.00
29003;DHT22;16102;57.138;-2.118;2023-04-01T08:32:56;7.50;1.00
29003;DHT22;16102;57.138;-2.118;2023-04-01T08:35:31;7.50;1.00
29003;DHT22;16102;57.138;-2.118;2023-04-01T08:38:23;7.50;1.00
29003;DHT22;16102;57.138;-2.118;2023-04-01T08:55:27;7.60;1.00
29003;DHT22;16102;57.138;-2.118;2023-04-01T09:01:17;7.50;1.00
29003;DHT22;16102;57.138;-2.118;2023-04-01T09:09:30;7.60;1.00
29003;DHT22;16102;57.138;-2.118;2023-04-01T09:17:53;7.50;1.00
29003;DHT22;16102;57.138;-2.118;2023-04-01T09:26:23;7.60;1.00
29003;DHT22;16102;57.138;-2.118;2023-04-01T09:31:45;7.50;1.00
29003;DHT22;16102;57.138;-2.118;2023-04-01T09:34:53;7.50;1.00
29003;DHT22;16102;57.138;-2.118;2023-04-01T09:46:03;7.50;1.00
29003;DHT22;16102;57.138;-2.118;2023-04-01T09:48:46;7.50;1.00
29003;DHT22;16102;57.138;-2.118;2023-04-01T10:26:38;7.80;1.00
29003;DHT22;16102;57.138;-2.118;2023-04-01T10:46:04;7.80;1.00
29003;DHT22;16102;57.138;-2.118;2023-04-01T10:52:08;7.90;1.00
29003;DHT22;16102;57.138;-2.118;2023-04-01T11:15:45;8.20;1.00
29003;DHT22;16102;57.138;-2.118;2023-04-01T11:29:55;8.40;1.00
29003;DHT22;16102;57.138;-2.118;2023-04-01T11:44:35;8.50;1.00
29003;DHT22;16102;57.138;-2.118;2023-04-01T12:14:50;8.90;1.00
29003;DHT22;16102;57.138;-2.118;2023-04-01T12:17:55;8.90;1.00
29003;DHT22;16102;57.138;-2.118;2023-04-01T12:20:36;8.80;1.00
29003;DHT22;16102;57.138;-2.118;2023-04-01T12:29:44;8.50;1.00
29003;DHT22;16102;57.138;-2.118;2023-04-01T12:32:17;8.70;1.00
29003;DHT22;16102;57.138;-2.118;2023-04-01T12:37:49;8.60;1.00
29003;DHT22;16102;57.138;-2.118;2023-04-01T12:43:27;9.00;1.00
29003;DHT22;16102;57.138;-2.118;2023-04-01T13:05:01;8.90;1.00
29003;DHT22;16102;57.138;-2.118;2023-04-01T13:07:59;8.90;1.00
29003;DHT22;16102;57.138;-2.118;2023-04-01T13:13:20;8.70;1.00
29003;DHT22;16102;57.138;-2.118;2023-04-01T13:16:08;8.80;1.00
29003;DHT22;16102;57.138;-2.118;2023-04-01T13:24:36;8.70;1.00
29003;DHT22;16102;57.138;-2.118;2023-04-01T13:27:34;8.80;1.00
29003;DHT22;16102;57.138;-2.118;2023-04-01T13:30:39;8.90;1.00
29003;DHT22;16102;57.138;-2.118;2023-04-01T13:33:16;8.90;1.00
29003;DHT22;16102;57.138;-2.118;2023-04-01T13:38:59;8.90;1.00
29003;DHT22;16102;57.138;-2.118;2023-04-01T13:41:40;9.00;1.00
29003;DHT22;16102;57.138;-2.118;2023-04-01T13:44:20;9.00;1.00
29003;DHT22;16102;57.138;-2.118;2023-04-01T13:55:38;9.10;1.00
29003;DHT22;16102;57.138;-2.118;2023-04-01T14:11:50;9.00;1.00
29003;DHT22;16102;57.138;-2.118;2023-04-01T14:26:30;8.90;1.00
29003;DHT22;16102;57.138;-2.118;2023-04-01T14:32:24;8.60;1.00
29003;DHT22;16102;57.138;-2.118;2023-04-01T14:38:12;8.70;1.00
29003;DHT22;16102;57.138;-2.118;2023-04-01T14:49:39;9.00;1.00
29003;DHT22;16102;57.138;-2.118;2023-04-01T14:52:31;9.00;1.00
29003;DHT22;16102;57.138;-2.118;2023-04-01T14:55:01;9.00;1.00
29003;DHT22;16102;57.138;-2.118;2023-04-01T14:57:31;9.00;1.00
29003;DHT22;16102;57.138;-2.118;2023-04-01T15:00:14;9.10;1.00
29003;DHT22;16102;57.138;-2.118;2023-04-01T15:05:30;9.00;1.00
29003;DHT22;16102;57.138;-2.118;2023-04-01T15:13:30;8.90;1.00
29003;DHT22;16102;57.138;-2.118;2023-04-01T15:24:26;8.70;1.00
29003;DHT22;16102;57.138;-2.118;2023-04-01T15:27:08;8.80;1.00
29003;DHT22;16102;57.138;-2.118;2023-04-01T15:40:44;8.80;1.00
29003;DHT22;16102;57.138;-2.118;2023-04-01T15:46:09;8.70;1.00
29003;DHT22;16102;57.138;-2.118;2023-04-01T15:51:20;8.80;1.00
29003;DHT22;16102;57.138;-2.118;2023-04-01T16:02:18;8.80;1.00
29003;DHT22;16102;57.138;-2.118;2023-04-01T16:08:07;8.90;1.00
29003;DHT22;16102;57.138;-2.118;2023-04-01T16:30:38;8.70;1.00
29003;DHT22;16102;57.138;-2.118;2023-04-01T16:39:26;8.80;1.00
29003;DHT22;16102;57.138;-2.118;2023-04-01T16:42:10;8.60;1.00
29003;DHT22;16102;57.138;-2.118;2023-04-01T16:45:15;8.60;1.00
29003;DHT22;16102;57.138;-2.118;2023-04-01T16:48:17;8.60;1.00
29003;DHT22;16102;57.138;-2.118;2023-04-01T16:51:02;8.70;1.00
29003;DHT22;16102;57.138;-2.118;2023-04-01T16:53:43;8.80;1.00
29003;DHT22;16102;57.138;-2.118;2023-04-01T16:56:27;8.80;1.00
29003;DHT22;16102;57.138;-2.118;2023-04-01T16:59:14;8.70;1.00
29003;DHT22;16102;57.138;-2.118;2023-04-01T17:01:55;8.70;1.00
29003;DHT22;16102;57.138;-2.118;2023-04-01T17:15:05;8.50;1.00
29003;DHT22;16102;57.138;-2.118;2023-04-01T17:23:24;8.30;1.00
29003;DHT22;16102;57.138;-2.118;2023-04-01T17:29:54;8.40;1.00
29003;DHT22;16102;57.138;-2.118;2023-04-01T17:35:12;8.30;1.00
29003;DHT22;16102;57.138;-2.118;2023-04-01T17:37:50;8.30;1.00
29003;DHT22;16102;57.138;-2.118;2023-04-01T17:43:31;8.30;1.00
29003;DHT22;16102;57.138;-2.118;2023-04-01T17:49:33;8.20;1.00
29003;DHT22;16102;57.138;-2.118;2023-04-01T17:52:27;8.30;1.00
29003;DHT22;16102;57.138;-2.118;2023-04-01T18:00:50;8.20;1.00
29003;DHT22;16102;57.138;-2.118;2023-04-01T18:06:07;8.20;1.00
29003;DHT22;16102;57.138;-2.118;2023-04-01T18:22:58;8.20;1.00
29003;DHT22;16102;57.138;-2.118;2023-04-01T18:30:58;8.20;1.00
29003;DHT22;16102;57.138;-2.118;2023-04-01T18:36:33;8.00;1.00
29003;DHT22;16102;57.138;-2.118;2023-04-01T18:39:10;8.00;1.00
29003;DHT22;16102;57.138;-2.118;2023-04-01T18:44:30;8.00;1.00
29003;DHT22;16102;57.138;-2.118;2023-04-01T18:47:13;8.00;1.00
29003;DHT22;16102;57.138;-2.118;2023-04-01T18:52:47;8.00;1.00
29003;DHT22;16102;57.138;-2.118;2023-04-01T18:55:31;8.00;1.00
29003;DHT22;16102;57.138;-2.118;2023-04-01T18:58:54;7.90;1.00
29003;DHT22;16102;57.138;-2.118;2023-04-01T19:03:52;7.90;1.00
29003;DHT22;16102;57.138;-2.118;2023-04-01T19:06:33;7.90;1.00
29003;DHT22;16102;57.138;-2.118;2023-04-01T19:14:53;7.90;1.00
29003;DHT22;16102;57.138;-2.118;2023-04-01T19:25:37;7.90;1.00
29003;DHT22;16102;57.138;-2.118;2023-04-01T19:31:58;7.80;1.00
29003;DHT22;16102;57.138;-2.118;2023-04-01T19:37:34;7.80;1.00
29003;DHT22;16102;57.138;-2.118;2023-04-01T19:42:59;7.80;1.00
29003;DHT22;16102;57.138;-2.118;2023-04-01T19:51:06;7.80;1.00
29003;DHT22;16102;57.138;-2.118;2023-04-01T19:56:22;7.80;1.00
29003;DHT22;16102;57.138;-2.118;2023-04-01T20:01:55;7.80;1.00
29003;DHT22;16102;57.138;-2.118;2023-04-01T20:07:27;7.80;1.00
29003;DHT22;16102;57.138;-2.118;2023-04-01T20:14:56;7.70;1.00
29003;DHT22;16102;57.138;-2.118;2023-04-01T20:17:44;7.80;1.00
29003;DHT22;16102;57.138;-2.118;2023-04-01T20:33:58;7.80;1.00
29003;DHT22;16102;57.138;-2.118;2023-04-01T20:42:49;7.70;1.00
29003;DHT22;16102;57.138;-2.118;2023-04-01T20:51:13;7.70;1.00
29003;DHT22;16102;57.138;-2.118;2023-04-01T20:59:34;7.70;1.00
29003;DHT22;16102;57.138;-2.118;2023-04-01T21:07:49;7.60;1.00
29003;DHT22;16102;57.138;-2.118;2023-04-01T21:15:59;7.50;1.00
29003;DHT22;16102;57.138;-2.118;2023-04-01T21:19:03;7.50;1.00
29003;DHT22;16102;57.138;-2.118;2023-04-01T21:30:37;7.40;1.00
29003;DHT22;16102;57.138;-2.118;2023-04-01T22:00:31;7.10;1.00
29003;DHT22;16102;57.138;-2.118;2023-04-01T22:06:14;7.20;1.00
29003;DHT22;16102;57.138;-2.118;2023-04-01T22:08:50;7.20;1.00
29003;DHT22;16102;57.138;-2.118;2023-04-01T22:11:44;7.20;1.00
29003;DHT22;16102;57.138;-2.118;2023-04-01T22:22:31;7.20;1.00
29003;DHT22;16102;57.138;-2.118;2023-04-01T22:25:48;7.20;1.00
29003;DHT22;16102;57.138;-2.118;2023-04-01T22:28:21;7.10;1.00
29003;DHT22;16102;57.138;-2.118;2023-04-01T22:30:51;7.10;1.00
29003;DHT22;16102;57.138;-2.118;2023-04-01T22:42:04;7.00;1.00
29003;DHT22;16102;57.138;-2.118;2023-04-01T22:45:02;7.10;1.00
29003;DHT22;16102;57.138;-2.118;2023-04-01T22:53:24;6.90;1.00
29003;DHT22;16102;57.138;-2.118;2023-04-01T22:55:57;6.90;1.00
29003;DHT22;16102;57.138;-2.118;2023-04-01T22:58:36;6.90;1.00
29003;DHT22;16102;57.138;-2.118;2023-04-01T23:01:14;6.90;1.00
29003;DHT22;16102;57.138;-2.118;2023-04-01T23:03:46;7.00;1.00
29003;DHT22;16102;57.138;-2.118;2023-04-01T23:06:22;7.00;1.00
29003;DHT22;16102;57.138;-2.118;2023-04-01T23:11:56;6.90;1.00
29003;DHT22;16102;57.138;-2.118;2023-04-01T23:23:39;6.80;1.00
29003;DHT22;16102;57.138;-2.118;2023-04-01T23:26:41;6.70;1.00
29003;DHT22;16102;57.138;-2.118;2023-04-01T23:29:15;6.70;1.00
29003;DHT22;16102;57.138;-2.118;2023-04-01T23:31:46;6.80;1.00
29003;DHT22;16102;57.138;-2.118;2023-04-01T23:36:47;6.70;1.00
29003;DHT22;16102;57.138;-2.118;2023-04-01T23:39:28;6.70;1.00
29003;DHT22;16102;57.138;-2.118;2023-04-01T23:42:00;6.70;1.00
29003;DHT22;16102;57.138;-2.118;2023-04-01T23:44:29;6.60;1.00
29003;DHT22;16102;57.138;-2.118;2023-04-01T23:46:57;6.60;1.00
29003;DHT22;16102;57.138;-2.118;2023-04-01T23:50:29;6.60;1.00
29003;DHT22;16102;57.138;-2.118;2023-04-01T23:52:43;6.60;1.00
29003;DHT22;16102;57.138;-2.118;2023-04-01T23:57:38;6.60;1.00
